Time,TemperatureF,DewpointF,PressureIn,WindDirection,WindDirectionDegrees,WindSpeedMPH,WindSpeedGustMPH,Humidity,HourlyPrecipIn,Conditions,Clouds,dailyrainin,SoftwareType,DateUTC
2013-04-19 00:03:00,53.0,46.0,30.09,SW,222,2.0,6.0,76,0.00,,,0.00,,2013-04-19 04:03:00,
2013-04-19 00:13:00,53.0,46.0,30.09,SW,222,2.0,6.0,76,0.00,,,0.00,,2013-04-19 04:13:00,
2013-04-19 00:23:00,53.0,46.0,30.09,SSW,209,3.0,6.0,76,0.00,,,0.00,,2013-04-19 04:23:00,
2013-04-19 00:33:00,53.0,46.0,30.08,South,180,1.0,3.0,76,0.00,,,0.00,,2013-04-19 04:33:00,
2013-04-19 00:43:00,53.0,46.0,30.08,South,179,1.0,3.0,76,0.00,,,0.00,,2013-04-19 04:43:00,
2013-04-19 00:52:00,53.0,46.0,30.08,South,179,1.0,3.0,76,0.00,,,0.00,,2013-04-19 04:52:00,
2013-04-19 01:03:00,53.0,46.0,30.06,South,182,3.0,6.0,76,0.00,,,0.00,,2013-04-19 05:03:00,
2013-04-19 01:12:00,53.0,46.0,30.06,South,182,3.0,6.0,76,0.00,,,0.00,,2013-04-19 05:12:00,
2013-04-19 01:22:00,53.0,46.0,30.06,South,189,2.0,5.0,76,0.00,,,0.00,,2013-04-19 05:22:00,
2013-04-19 01:32:00,53.0,46.0,30.04,SSE,162,2.0,5.0,76,0.00,,,0.00,,2013-04-19 05:32:00,
2013-04-19 01:42:00,53.0,46.0,30.04,SSE,162,2.0,5.0,76,0.00,,,0.00,,2013-04-19 05:42:00,
2013-04-19 01:52:00,53.0,46.0,30.05,SSE,158,1.0,3.0,76,0.00,,,0.00,,2013-04-19 05:52:00,
2013-04-19 02:02:00,53.0,46.0,30.05,WSW,257,0.0,3.0,76,0.00,,,0.00,,2013-04-19 06:02:00,
2013-04-19 02:12:00,53.0,46.0,30.05,WSW,257,0.0,3.0,76,0.00,,,0.00,,2013-04-19 06:12:00,
2013-04-19 02:22:00,53.0,46.0,30.04,WSW,257,0.0,1.0,76,0.00,,,0.00,,2013-04-19 06:22:00,
2013-04-19 02:32:00,53.0,46.0,30.03,WSW,258,0.0,1.0,76,0.00,,,0.00,,2013-04-19 06:32:00,
2013-04-19 02:42:00,53.0,46.0,30.03,WSW,258,0.0,1.0,76,0.00,,,0.00,,2013-04-19 06:42:00,
2013-04-19 02:52:00,53.0,46.0,30.03,WSW,257,0.0,1.0,76,0.00,,,0.00,,2013-04-19 06:52:00,
2013-04-19 03:02:00,53.0,46.0,30.01,WSW,257,0.0,2.0,76,0.00,,,0.00,,2013-04-19 07:02:00,
2013-04-19 03:12:00,53.0,46.0,30.01,WSW,257,0.0,0.0,76,0.00,,,0.00,,2013-04-19 07:12:00,
2013-04-19 03:21:00,53.0,46.0,30.01,WSW,257,0.0,0.0,76,0.00,,,0.00,,2013-04-19 07:21:00,
2013-04-19 03:32:00,53.0,46.0,30.00,SSE,165,2.0,5.0,76,0.00,,,0.00,,2013-04-19 07:32:00,
2013-04-19 03:42:00,53.0,46.0,30.00,SSE,165,2.0,5.0,76,0.00,,,0.00,,2013-04-19 07:42:00,
2013-04-19 03:52:00,53.0,46.0,29.98,SSW,213,1.0,5.0,76,0.00,,,0.00,,2013-04-19 07:52:00,
2013-04-19 04:02:00,54.0,47.0,29.96,SSW,205,4.0,7.0,76,0.00,,,0.00,,2013-04-19 08:02:00,
2013-04-19 04:12:00,54.0,47.0,29.96,SSW,200,5.0,7.0,76,0.00,,,0.00,,2013-04-19 08:12:00,
2013-04-19 04:22:00,54.0,47.0,29.96,SSW,200,5.0,7.0,76,0.00,,,0.00,,2013-04-19 08:22:00,
2013-04-19 04:33:00,55.0,48.0,29.96,SSW,210,1.0,8.0,76,0.00,,,0.00,,2013-04-19 08:33:00,
2013-04-19 04:42:00,55.0,48.0,29.97,SSW,211,0.0,3.0,76,0.00,,,0.00,,2013-04-19 08:42:00,
2013-04-19 04:52:00,55.0,48.0,29.97,SSW,211,0.0,3.0,76,0.00,,,0.00,,2013-04-19 08:52:00,
2013-04-19 05:01:00,56.0,49.0,29.97,SW,233,3.0,7.0,76,0.00,,,0.00,,2013-04-19 09:01:00,
2013-04-19 05:12:00,56.0,49.0,29.97,SW,233,3.0,7.0,76,0.00,,,0.00,,2013-04-19 09:12:00,
2013-04-19 05:21:00,56.0,49.0,29.96,SW,231,2.0,9.0,76,0.00,,,0.00,,2013-04-19 09:21:00,
2013-04-19 05:33:00,56.0,49.0,29.96,SW,223,3.0,5.0,76,0.00,,,0.00,,2013-04-19 09:33:00,
2013-04-19 05:43:00,56.0,49.0,29.96,SW,223,3.0,5.0,76,0.00,,,0.00,,2013-04-19 09:43:00,
2013-04-19 05:52:00,56.0,49.0,29.95,WSW,241,3.0,6.0,76,0.00,,,0.00,,2013-04-19 09:52:00,
2013-04-19 06:02:00,56.0,49.0,29.94,SW,228,2.0,5.0,76,0.00,,,0.00,,2013-04-19 10:02:00,
2013-04-19 06:13:00,56.0,49.0,29.94,SW,228,2.0,7.0,76,0.00,,,0.00,,2013-04-19 10:13:00,
2013-04-19 06:23:00,56.0,49.0,29.94,SW,228,2.0,7.0,76,0.00,,,0.00,,2013-04-19 10:23:00,
2013-04-19 06:33:00,56.0,49.0,29.93,WSW,238,4.0,9.0,76,0.00,,,0.00,,2013-04-19 10:33:00,
2013-04-19 06:42:00,56.0,49.0,29.93,WSW,239,3.0,9.0,77,0.00,,,0.00,,2013-04-19 10:42:00,
2013-04-19 06:52:00,56.0,49.0,29.93,WSW,239,3.0,9.0,77,0.00,,,0.00,,2013-04-19 10:52:00,
2013-04-19 07:03:00,58.0,51.0,29.92,SW,226,5.0,10.0,77,0.00,,,0.00,,2013-04-19 11:03:00,
2013-04-19 07:11:00,58.0,51.0,29.92,SW,226,5.0,10.0,77,0.00,,,0.00,,2013-04-19 11:11:00,
2013-04-19 07:22:00,58.0,51.0,29.93,WSW,246,7.0,12.0,77,0.00,,,0.00,,2013-04-19 11:22:00,
2013-04-19 07:32:00,59.0,51.0,29.94,West,268,3.0,12.0,76,0.00,,,0.00,,2013-04-19 11:32:00,
2013-04-19 07:42:00,59.0,51.0,29.94,West,268,3.0,12.0,76,0.00,,,0.00,,2013-04-19 11:42:00,
2013-04-19 07:52:00,59.0,51.0,29.94,WSW,243,3.0,12.0,76,0.00,,,0.00,,2013-04-19 11:52:00,
2013-04-19 08:03:00,60.0,52.0,29.93,WSW,250,7.0,16.0,76,0.00,,,0.00,,2013-04-19 12:03:00,
2013-04-19 08:12:00,60.0,52.0,29.92,WSW,242,9.0,16.0,76,0.00,,,0.00,,2013-04-19 12:12:00,
2013-04-19 08:22:00,60.0,52.0,29.92,WSW,242,9.0,16.0,76,0.00,,,0.00,,2013-04-19 12:22:00,
2013-04-19 08:32:00,61.0,53.0,29.92,SW,232,5.0,13.0,76,0.00,,,0.00,,2013-04-19 12:32:00,
2013-04-19 08:42:00,61.0,53.0,29.92,SW,232,5.0,13.0,76,0.00,,,0.00,,2013-04-19 12:42:00,
2013-04-19 08:52:00,62.0,54.0,29.91,SW,234,4.0,12.0,76,0.00,,,0.00,,2013-04-19 12:52:00,
2013-04-19 09:02:00,62.0,54.0,29.91,WSW,237,7.0,12.0,76,0.00,,,0.00,,2013-04-19 13:02:00,
2013-04-19 09:11:00,62.0,54.0,29.91,SW,224,6.0,12.0,76,0.00,,,0.00,,2013-04-19 13:11:00,
2013-04-19 09:22:00,62.0,54.0,29.91,SW,224,6.0,12.0,76,0.00,,,0.00,,2013-04-19 13:22:00,
2013-04-19 09:32:00,63.0,56.0,29.90,SSW,200,12.0,20.0,77,0.01,,,0.01,,2013-04-19 13:32:00,
2013-04-19 09:42:00,63.0,56.0,29.90,SSW,200,12.0,20.0,77,0.01,,,0.01,,2013-04-19 13:42:00,
2013-04-19 09:52:00,63.0,56.0,29.90,SW,231,6.0,18.0,77,0.01,,,0.01,,2013-04-19 13:52:00,
2013-04-19 10:02:00,64.0,57.0,29.89,SW,219,5.0,12.0,77,0.01,,,0.01,,2013-04-19 14:02:00,
2013-04-19 10:11:00,65.0,58.0,29.88,WSW,251,5.0,12.0,77,0.01,,,0.01,,2013-04-19 14:11:00,
2013-04-19 10:22:00,65.0,58.0,29.88,WSW,251,5.0,12.0,77,0.01,,,0.01,,2013-04-19 14:22:00,
2013-04-19 10:32:00,66.0,59.0,29.86,SSW,200,8.0,20.0,77,0.00,,,0.01,,2013-04-19 14:32:00,
2013-04-19 10:43:00,66.0,59.0,29.86,SSW,200,8.0,20.0,77,0.00,,,0.01,,2013-04-19 14:43:00,
2013-04-19 10:52:00,67.0,60.0,29.86,South,179,9.0,23.0,77,0.00,,,0.01,,2013-04-19 14:52:00,
2013-04-19 11:02:00,67.0,60.0,29.85,South,174,5.0,14.0,77,0.00,,,0.01,,2013-04-19 15:02:00,
2013-04-19 11:12:00,67.0,60.0,29.85,South,174,5.0,14.0,77,0.00,,,0.01,,2013-04-19 15:12:00,
2013-04-19 11:22:00,66.0,59.0,29.85,South,182,5.0,9.0,77,0.00,,,0.01,,2013-04-19 15:22:00,
2013-04-19 11:33:00,65.0,58.0,29.85,SW,235,8.0,16.0,77,0.00,,,0.01,,2013-04-19 15:33:00,
2013-04-19 11:43:00,65.0,58.0,29.85,SW,235,8.0,16.0,77,0.00,,,0.01,,2013-04-19 15:43:00,
2013-04-19 11:52:00,65.0,57.0,29.85,SW,234,9.0,18.0,76,0.00,,,0.01,,2013-04-19 15:52:00,
2013-04-19 12:03:00,64.0,56.0,29.84,SW,227,8.0,17.0,76,0.00,,,0.01,,2013-04-19 16:03:00,
2013-04-19 12:13:00,64.0,56.0,29.84,SW,227,8.0,17.0,76,0.00,,,0.01,,2013-04-19 16:13:00,
2013-04-19 12:23:00,65.0,57.0,29.83,SW,231,9.0,13.0,76,0.00,,,0.01,,2013-04-19 16:23:00,
2013-04-19 12:33:00,66.0,58.0,29.81,SW,228,5.0,13.0,76,0.00,,,0.01,,2013-04-19 16:33:00,
2013-04-19 12:42:00,66.0,58.0,29.81,SW,228,5.0,13.0,76,0.00,,,0.01,,2013-04-19 16:42:00,
2013-04-19 12:52:00,66.0,59.0,29.81,SW,220,5.0,12.0,77,0.00,,,0.01,,2013-04-19 16:52:00,
2013-04-19 13:02:00,68.0,61.0,29.80,SSW,200,9.0,14.0,77,0.00,,,0.01,,2013-04-19 17:02:00,
2013-04-19 13:12:00,68.0,61.0,29.80,SSW,200,9.0,14.0,77,0.00,,,0.01,,2013-04-19 17:12:00,
2013-04-19 13:22:00,68.0,60.0,29.79,SW,227,5.0,15.0,76,0.00,,,0.01,,2013-04-19 17:22:00,
2013-04-19 13:33:00,68.0,61.0,29.79,SW,229,6.0,14.0,77,0.00,,,0.01,,2013-04-19 17:33:00,
2013-04-19 13:42:00,68.0,61.0,29.79,SW,229,6.0,14.0,77,0.00,,,0.01,,2013-04-19 17:42:00,
2013-04-19 13:52:00,68.0,61.0,29.78,SW,225,3.0,12.0,77,0.00,,,0.01,,2013-04-19 17:52:00,
2013-04-19 14:02:00,67.0,60.0,29.78,South,173,5.0,9.0,77,0.00,,,0.01,,2013-04-19 18:02:00,
2013-04-19 14:13:00,67.0,60.0,29.78,South,173,5.0,9.0,77,0.00,,,0.01,,2013-04-19 18:13:00,
2013-04-19 14:23:00,67.0,60.0,29.77,SW,227,3.0,8.0,77,0.00,,,0.01,,2013-04-19 18:23:00,
2013-04-19 14:33:00,69.0,61.0,29.76,SSW,200,2.0,9.0,77,0.00,,,0.01,,2013-04-19 18:33:00,
2013-04-19 14:43:00,69.0,61.0,29.76,SSW,200,2.0,9.0,77,0.00,,,0.01,,2013-04-19 18:43:00,
2013-04-19 14:52:00,71.0,63.0,29.75,SE,134,7.0,12.0,75,0.00,,,0.01,,2013-04-19 18:52:00,
2013-04-19 15:02:00,71.0,62.0,29.74,SSE,161,5.0,14.0,72,0.00,,,0.01,,2013-04-19 19:02:00,
2013-04-19 15:11:00,71.0,62.0,29.74,SSE,161,5.0,14.0,72,0.00,,,0.01,,2013-04-19 19:11:00,
2013-04-19 15:21:00,70.0,61.0,29.73,SSE,155,2.0,12.0,73,0.00,,,0.01,,2013-04-19 19:21:00,
2013-04-19 15:32:00,69.0,61.0,29.71,South,171,3.0,9.0,75,0.00,,,0.01,,2013-04-19 19:32:00,
2013-04-19 15:42:00,69.0,61.0,29.71,South,171,3.0,9.0,75,0.00,,,0.01,,2013-04-19 19:42:00,
2013-04-19 15:52:00,69.0,61.0,29.70,SSE,161,5.0,14.0,75,0.00,,,0.01,,2013-04-19 19:52:00,
2013-04-19 16:02:00,72.0,63.0,29.68,South,177,7.0,15.0,74,0.00,,,0.01,,2013-04-19 20:02:00,
2013-04-19 16:11:00,72.0,63.0,29.68,South,177,7.0,15.0,74,0.00,,,0.01,,2013-04-19 20:11:00,
2013-04-19 16:22:00,73.0,63.0,29.67,South,181,7.0,16.0,71,0.00,,,0.01,,2013-04-19 20:22:00,
2013-04-19 16:32:00,71.0,62.0,29.65,SW,218,5.0,18.0,74,0.00,,,0.01,,2013-04-19 20:32:00,
2013-04-19 16:42:00,71.0,63.0,29.65,SSW,200,6.0,18.0,75,0.00,,,0.01,,2013-04-19 20:42:00,
2013-04-19 16:52:00,71.0,63.0,29.65,SSW,200,6.0,18.0,75,0.00,,,0.01,,2013-04-19 20:52:00,
2013-04-19 17:01:00,71.0,62.0,29.64,SSW,211,12.0,24.0,74,0.00,,,0.01,,2013-04-19 21:01:00,
2013-04-19 17:11:00,71.0,62.0,29.63,SSW,209,10.0,21.0,74,0.00,,,0.01,,2013-04-19 21:11:00,
2013-04-19 17:21:00,71.0,62.0,29.63,SSW,209,10.0,21.0,74,0.00,,,0.01,,2013-04-19 21:21:00,
2013-04-19 17:32:00,71.0,62.0,29.63,SSW,205,8.0,15.0,73,0.00,,,0.01,,2013-04-19 21:32:00,
2013-04-19 17:42:00,71.0,62.0,29.63,SSW,205,8.0,15.0,73,0.00,,,0.01,,2013-04-19 21:42:00,
2013-04-19 17:52:00,71.0,62.0,29.63,SW,231,5.0,15.0,74,0.00,,,0.01,,2013-04-19 21:52:00,
2013-04-19 18:02:00,70.0,61.0,29.64,SW,228,10.0,23.0,74,0.00,,,0.01,,2013-04-19 22:02:00,
2013-04-19 18:12:00,70.0,61.0,29.64,SW,228,10.0,23.0,74,0.00,,,0.01,,2013-04-19 22:12:00,
2013-04-19 18:23:00,70.0,61.0,29.63,SSE,167,10.0,23.0,74,0.00,,,0.01,,2013-04-19 22:23:00,
2013-04-19 18:33:00,69.0,61.0,29.62,South,182,6.0,17.0,75,0.00,,,0.01,,2013-04-19 22:33:00,
2013-04-19 18:42:00,69.0,61.0,29.62,South,182,6.0,17.0,75,0.00,,,0.01,,2013-04-19 22:42:00,
2013-04-19 18:52:00,69.0,61.0,29.62,SSW,200,8.0,15.0,75,0.00,,,0.01,,2013-04-19 22:52:00,
2013-04-19 19:03:00,68.0,60.0,29.62,SW,217,10.0,17.0,76,0.00,,,0.01,,2013-04-19 23:03:00,
2013-04-19 19:11:00,68.0,60.0,29.62,SW,217,10.0,17.0,76,0.00,,,0.01,,2013-04-19 23:11:00,
2013-04-19 19:22:00,67.0,60.0,29.61,SSW,200,7.0,17.0,77,0.00,,,0.01,,2013-04-19 23:22:00,
2013-04-19 19:32:00,67.0,60.0,29.60,SSW,200,10.0,20.0,77,0.00,,,0.01,,2013-04-19 23:32:00,
2013-04-19 19:42:00,67.0,60.0,29.60,SSW,200,10.0,20.0,77,0.00,,,0.01,,2013-04-19 23:42:00,
2013-04-19 19:52:00,66.0,59.0,29.60,South,182,10.0,20.0,77,0.00,,,0.01,,2013-04-19 23:52:00,
2013-04-19 20:02:00,66.0,59.0,29.59,SSW,200,9.0,17.0,77,0.00,,,0.01,,2013-04-20 00:02:00,
2013-04-19 20:12:00,66.0,59.0,29.59,SSW,200,9.0,17.0,77,0.00,,,0.01,,2013-04-20 00:12:00,
2013-04-19 20:22:00,66.0,59.0,29.59,South,178,9.0,20.0,77,0.00,,,0.01,,2013-04-20 00:22:00,
2013-04-19 20:32:00,66.0,59.0,29.58,South,180,9.0,14.0,77,0.00,,,0.01,,2013-04-20 00:32:00,
2013-04-19 20:42:00,66.0,59.0,29.58,South,180,9.0,14.0,77,0.00,,,0.01,,2013-04-20 00:42:00,
2013-04-19 20:51:00,66.0,59.0,29.58,South,176,7.0,12.0,77,0.00,,,0.01,,2013-04-20 00:51:00,
2013-04-19 21:01:00,66.0,58.0,29.58,WSW,246,8.0,14.0,76,0.00,,,0.01,,2013-04-20 01:01:00,
2013-04-19 21:11:00,66.0,58.0,29.58,WSW,246,8.0,14.0,76,0.00,,,0.01,,2013-04-20 01:11:00,
2013-04-19 21:21:00,66.0,58.0,29.59,SSW,200,7.0,16.0,76,0.00,,,0.01,,2013-04-20 01:21:00,
2013-04-19 21:32:00,66.0,59.0,29.59,SSW,200,8.0,20.0,77,0.00,,,0.01,,2013-04-20 01:32:00,
2013-04-19 21:42:00,66.0,59.0,29.59,SSW,200,8.0,20.0,77,0.00,,,0.01,,2013-04-20 01:42:00,
2013-04-19 21:52:00,66.0,59.0,29.58,SSW,200,9.0,18.0,77,0.00,,,0.01,,2013-04-20 01:52:00,
2013-04-19 22:02:00,65.0,57.0,29.65,NW,314,8.0,33.0,75,0.23,,,0.24,,2013-04-20 02:02:00,
2013-04-19 22:11:00,64.0,56.0,29.65,WNW,292,7.0,13.0,75,0.41,,,0.42,,2013-04-20 02:11:00,
2013-04-19 22:21:00,64.0,56.0,29.65,WNW,292,7.0,13.0,75,0.41,,,0.42,,2013-04-20 02:21:00,
2013-04-19 22:32:00,62.0,54.0,29.63,WNW,284,3.0,12.0,75,0.50,,,0.51,,2013-04-20 02:32:00,
2013-04-19 22:42:00,62.0,54.0,29.63,WNW,284,3.0,12.0,75,0.50,,,0.51,,2013-04-20 02:42:00,
2013-04-19 22:52:00,62.0,54.0,29.63,West,280,1.0,7.0,75,0.53,,,0.54,,2013-04-20 02:52:00,
2013-04-19 23:01:00,62.0,54.0,29.65,West,269,1.0,7.0,75,0.36,,,0.60,,2013-04-20 03:01:00,
2013-04-19 23:11:00,61.0,53.0,29.65,NW,318,6.0,12.0,75,0.22,,,0.64,,2013-04-20 03:11:00,
2013-04-19 23:21:00,61.0,53.0,29.65,NW,318,6.0,12.0,75,0.22,,,0.64,,2013-04-20 03:21:00,
2013-04-19 23:33:00,58.0,50.0,29.64,NNW,334,13.0,30.0,76,0.22,,,0.73,,2013-04-20 03:33:00,
2013-04-19 23:43:00,56.0,49.0,29.63,NNW,331,7.0,22.0,76,0.22,,,0.76,,2013-04-20 03:43:00,
2013-04-19 23:52:00,56.0,49.0,29.63,NNW,331,7.0,22.0,76,0.22,,,0.76,,2013-04-20 03:52:00,